Time;durP1;ratioP1;P1;durP2;ratioP2;P2;SDS_P1;SDS_P2;PMS_P1;PMS_P2;Temp;Humidity;BMP_temperature;BMP_pressure;BME280_temperature;BME280_humidity;BME280_pressure;Samples;Min_cycle;Max_cycle;Signal;HPM_P1;HPM_P2
2022/12/19 00:01:14;;;;;;;41.45;19.55;;;;;;;0.44;100.00;101741.81;5029963;28;20489;-76
2022/12/19 00:03:42;;;;;;;54.40;20.67;;;;;;;0.48;100.00;101724.81;5035769;28;20511;-76
2022/12/19 00:06:08;;;;;;;49.75;21.27;;;;;;;0.53;100.00;101730.09;5026097;28;20469;-76
2022/12/19 00:08:33;;;;;;;50.47;20.67;;;;;;;0.56;100.00;101716.66;5027256;28;20071;-76
2022/12/19 00:11:01;;;;;;;49.30;19.42;;;;;;;0.59;100.00;101713.91;5030404;28;20021;-76
2022/12/19 00:13:28;;;;;;;48.83;20.67;;;;;;;0.60;100.00;101699.59;5025751;28;20037;-77
2022/12/19 00:15:53;;;;;;;41.60;18.80;;;;;;;0.63;100.00;101712.06;5026290;28;20496;-76
2022/12/19 00:18:19;;;;;;;56.85;21.98;;;;;;;0.64;100.00;101713.84;5033361;28;20048;-77
2022/12/19 00:20:44;;;;;;;50.08;21.67;;;;;;;0.68;100.00;101713.75;5047169;28;20140;-76
2022/12/19 00:23:09;;;;;;;50.65;21.13;;;;;;;0.68;100.00;101699.47;5046139;28;20047;-76
2022/12/19 00:25:35;;;;;;;49.00;21.08;;;;;;;0.70;100.00;101703.00;5046766;28;20564;-76
2022/12/19 00:28:03;;;;;;;45.88;18.60;;;;;;;0.71;100.00;101704.78;5037277;28;20044;-76
2022/12/19 00:30:28;;;;;;;55.38;22.27;;;;;;;0.73;100.00;101703.84;5071056;28;20040;-75
2022/12/19 00:32:55;;;;;;;52.70;22.02;;;;;;;0.74;100.00;101686.84;5038527;28;20025;-76
2022/12/19 00:35:20;;;;;;;53.28;19.75;;;;;;;0.74;100.00;101686.84;5027019;28;20158;-76
2022/12/19 00:37:45;;;;;;;52.95;21.52;;;;;;;0.79;100.00;101681.41;5025970;28;20105;-76
2022/12/19 00:40:11;;;;;;;59.67;23.60;;;;;;;0.81;100.00;101679.59;5025157;28;20473;-76
2022/12/19 00:42:37;;;;;;;53.42;21.63;;;;;;;0.83;100.00;101672.41;5044064;28;20033;-76
2022/12/19 00:45:02;;;;;;;51.40;20.15;;;;;;;0.85;100.00;101678.63;5043703;28;20021;-76
2022/12/19 00:47:28;;;;;;;45.70;19.83;;;;;;;0.87;100.00;101667.88;5052166;28;20047;-76
2022/12/19 00:49:53;;;;;;;50.38;20.80;;;;;;;0.87;100.00;101674.13;5025835;28;20112;-75
2022/12/19 00:52:20;;;;;;;49.22;20.42;;;;;;;0.89;100.00;101674.13;5027221;28;20033;-76
2022/12/19 00:54:46;;;;;;;48.75;21.95;;;;;;;0.91;100.00;101675.84;5025740;28;20029;-76
2022/12/19 00:57:11;;;;;;;55.45;20.63;;;;;;;0.97;100.00;101662.31;5041853;28;20075;-76
2022/12/19 00:59:39;;;;;;;49.08;21.35;;;;;;;0.98;100.00;101656.06;5009302;28;20044;-76
2022/12/19 01:02:04;;;;;;;50.97;21.40;;;;;;;0.97;100.00;101637.31;5025210;28;20025;-76
2022/12/19 01:04:30;;;;;;;49.50;19.98;;;;;;;1.01;100.00;101644.38;5026976;28;20149;-76
2022/12/19 01:06:55;;;;;;;43.75;20.40;;;;;;;1.03;100.00;101655.97;5026090;28;20139;-76
2022/12/19 01:09:22;;;;;;;45.08;21.02;;;;;;;1.05;100.00;101658.59;5025461;28;20128;-77
2022/12/19 01:14:32;;;;;;;44.85;19.25;;;;;;;1.08;100.00;101662.13;5041639;28;20033;-76
2022/12/19 01:16:57;;;;;;;43.20;19.58;;;;;;;1.11;100.00;101653.13;5026748;28;20511;-76
2022/12/19 01:19:25;;;;;;;52.47;21.45;;;;;;;1.10;100.00;101635.28;5030040;28;20056;-76
2022/12/19 01:21:51;;;;;;;48.67;20.55;;;;;;;1.15;100.00;101641.44;5029339;28;20029;-75
2022/12/19 01:24:17;;;;;;;50.97;19.80;;;;;;;1.15;100.00;101634.28;5030415;28;20079;-76
2022/12/19 01:26:42;;;;;;;41.75;19.55;;;;;;;1.17;100.00;101628.91;5031672;28;20040;-75
2022/12/19 01:29:07;;;;;;;50.17;19.08;;;;;;;1.16;100.00;101622.63;5039623;28;20086;-76
2022/12/19 01:31:33;;;;;;;44.60;20.95;;;;;;;1.17;100.00;101624.41;5044712;28;20076;-76
2022/12/19 01:34:00;;;;;;;46.58;20.30;;;;;;;1.17;100.00;101628.91;5036454;28;20087;-76
2022/12/19 01:36:26;;;;;;;45.47;20.58;;;;;;;1.16;100.00;101627.97;5029537;28;20037;-77
2022/12/19 01:38:55;;;;;;;39.60;18.55;;;;;;;1.15;100.00;101628.03;5032789;28;20105;-77
2022/12/19 01:41:20;;;;;;;42.13;18.85;;;;;;;1.15;100.00;101631.59;5046072;28;20063;-77
2022/12/19 01:43:56;;;;;;;44.92;19.20;;;;;;;1.14;100.00;101634.31;5029793;28;20065;-77
2022/12/19 01:46:29;;;;;;;47.70;19.65;;;;;;;1.15;100.00;101628.03;5033393;28;20581;-77
2022/12/19 01:48:55;;;;;;;44.22;19.70;;;;;;;1.14;100.00;101628.94;5037553;28;20469;-77
2022/12/19 01:51:24;;;;;;;45.08;19.67;;;;;;;1.17;100.00;101628.91;5029605;28;20100;-77
2022/12/19 01:53:55;;;;;;;48.35;20.67;;;;;;;1.17;100.00;101624.41;5028827;28;20044;-77
2022/12/19 01:56:25;;;;;;;45.13;20.05;;;;;;;1.18;100.00;101615.47;5044968;28;20133;-76
2022/12/19 01:58:53;;;;;;;45.13;19.23;;;;;;;1.17;100.00;101613.69;5028186;28;20420;-77
2022/12/19 02:01:18;;;;;;;43.97;19.55;;;;;;;1.17;100.00;101611.03;5027589;28;20041;-76
2022/12/19 02:03:44;;;;;;;42.28;18.90;;;;;;;1.20;100.00;101618.97;5027942;28;20044;-77
2022/12/19 02:06:12;;;;;;;47.58;18.55;;;;;;;1.21;100.00;101619.84;5028325;28;20037;-77
2022/12/19 02:08:43;;;;;;;47.35;18.70;;;;;;;1.20;100.00;101610.94;5028296;28;20018;-76
2022/12/19 02:11:08;;;;;;;41.58;20.08;;;;;;;1.22;100.00;101611.81;5031110;28;20041;-78
2022/12/19 02:13:35;;;;;;;46.13;19.25;;;;;;;1.24;100.00;101593.88;5011613;28;20404;-76
2022/12/19 02:16:07;;;;;;;52.28;19.90;;;;;;;1.26;100.00;101588.50;5039471;28;20102;-76
2022/12/19 02:18:47;;;;;;;46.47;19.77;;;;;;;1.30;100.00;101581.25;5046414;28;20029;-77
2022/12/19 02:21:25;;;;;;;46.67;20.38;;;;;;;1.30;100.00;101582.13;5031377;28;20373;-76
2022/12/19 02:24:13;;;;;;;54.78;20.65;;;;;;;1.32;100.00;101576.75;5037847;28;20382;-77
2022/12/19 02:26:49;;;;;;;46.78;18.38;;;;;;;1.34;100.00;101569.53;5027698;28;20560;-76
2022/12/19 02:29:54;;;;;;;45.33;19.17;;;;;;;1.37;100.00;101577.53;5028074;28;20065;-77
2022/12/19 02:32:41;;;;;;;47.15;18.95;;;;;;;1.39;100.00;101571.19;5028531;28;20098;-76
2022/12/19 02:35:16;;;;;;;51.35;21.13;;;;;;;1.43;100.00;101572.00;5027656;28;20041;-78
2022/12/19 02:37:55;;;;;;;41.05;18.77;;;;;;;1.46;100.00;101564.78;5029039;28;20033;-76
2022/12/19 02:40:41;;;;;;;48.40;19.88;;;;;;;1.48;100.00;101565.63;5043917;28;20029;-76
2022/12/19 02:43:11;;;;;;;53.88;19.70;;;;;;;1.55;100.00;101563.69;5027198;28;20037;-76
2022/12/19 02:45:38;;;;;;;47.40;19.02;;;;;;;1.57;100.00;101550.25;5036094;28;20042;-76
2022/12/19 02:48:05;;;;;;;48.33;19.17;;;;;;;1.58;100.00;101542.16;5028411;28;20036;-76
2022/12/19 02:50:37;;;;;;;47.08;20.33;;;;;;;1.63;100.00;101545.63;5028930;28;20497;-76
2022/12/19 02:53:03;;;;;;;46.42;19.60;;;;;;;1.69;100.00;101537.44;5029389;28;20456;-76
2022/12/19 02:55:37;;;;;;;45.30;17.88;;;;;;;1.72;100.00;101534.66;5027105;28;20742;-76
2022/12/19 02:58:35;;;;;;;41.42;18.20;;;;;;;1.77;100.00;101532.75;5027566;28;20041;-76
2022/12/19 03:01:16;;;;;;;41.92;16.58;;;;;;;1.81;100.00;101522.81;5027930;28;20385;-76
2022/12/19 03:04:02;;;;;;;49.10;19.48;;;;;;;1.84;100.00;101519.19;5028055;28;20041;-76
2022/12/19 03:06:35;;;;;;;45.03;17.83;;;;;;;1.89;100.00;101520.81;5028065;28;20167;-76
2022/12/19 03:09:12;;;;;;;;;;;;;;;1.94;100.00;101532.31;5028001;28;20373;-76
2022/12/19 03:11:40;;;;;;;38.80;16.63;;;;;;;1.97;100.00;101524.19;5036376;28;19923;-76
2022/12/19 03:14:11;;;;;;;44.50;17.83;;;;;;;2.02;100.00;101521.41;5040640;28;20555;-77
2022/12/19 03:16:37;;;;;;;49.05;18.85;;;;;;;2.07;100.00;101529.31;5025606;28;20053;-76
2022/12/19 03:19:09;;;;;;;41.70;18.45;;;;;;;2.08;100.00;101518.53;5026945;28;20060;-76
2022/12/19 03:21:36;;;;;;;46.42;18.77;;;;;;;2.11;100.00;101531.88;5028389;28;20045;-76
2022/12/19 03:24:03;;;;;;;46.40;18.67;;;;;;;2.14;100.00;101517.50;5027308;28;20373;-76
2022/12/19 03:26:33;;;;;;;42.05;17.25;;;;;;;2.16;100.00;101513.84;5028501;28;20738;-75
2022/12/19 03:29:04;;;;;;;47.50;18.50;;;;;;;2.23;100.00;101512.75;5060326;28;20033;-75
2022/12/19 03:31:32;;;;;;;43.97;17.60;;;;;;;2.28;100.00;101515.31;5041670;28;20041;-76
2022/12/19 03:34:06;;;;;;;42.33;16.83;;;;;;;2.29;100.00;101507.22;5034532;28;20120;-76
2022/12/19 03:36:38;;;;;;;46.28;18.25;;;;;;;2.35;100.00;101510.66;5010413;28;20033;-76
2022/12/19 03:39:07;;;;;;;45.22;17.15;;;;;;;2.37;100.00;101519.53;5029109;28;20033;-76
2022/12/19 03:44:21;;;;;;;47.10;16.90;;;;;;;2.44;100.00;101503.22;5038296;28;20048;-76
2022/12/19 03:46:53;;;;;;;40.45;15.70;;;;;;;2.51;100.00;101501.25;5026642;28;20546;-77
2022/12/19 03:49:19;;;;;;;36.15;15.90;;;;;;;2.57;100.00;101493.03;5027923;28;20088;-76
2022/12/19 03:51:58;;;;;;;36.33;15.45;;;;;;;2.64;100.00;101497.28;5026695;28;20393;-76
2022/12/19 03:54:28;;;;;;;38.33;14.35;;;;;;;2.68;100.00;101501.66;5027376;28;20037;-76
2022/12/19 03:56:59;;;;;;;32.05;13.80;;;;;;;2.74;100.00;101488.03;5026510;28;20044;-76
2022/12/19 03:59:51;;;;;;;39.15;14.35;;;;;;;2.86;100.00;101492.16;5028662;28;20071;-76
2022/12/19 04:02:19;;;;;;;39.22;15.18;;;;;;;2.93;100.00;101495.53;5026901;28;20029;-77
2022/12/19 04:04:53;;;;;;;33.53;14.65;;;;;;;2.98;100.00;101496.25;5027718;28;20444;-77
2022/12/19 04:07:20;;;;;;;32.00;14.55;;;;;;;3.07;100.00;101485.22;5027928;28;20040;-77
2022/12/19 04:09:47;;;;;;;35.35;12.95;;;;;;;3.13;100.00;101486.88;5041275;28;20079;-77
2022/12/19 04:12:24;;;;;;;33.55;13.15;;;;;;;3.15;100.00;101487.69;5041376;28;20480;-77
2022/12/19 04:14:50;;;;;;;30.58;13.65;;;;;;;3.20;100.00;101485.75;5033149;28;20051;-76
2022/12/19 04:17:29;;;;;;;31.60;13.98;;;;;;;3.22;100.00;101489.28;5008694;28;20470;-77
2022/12/19 04:20:03;;;;;;;31.02;13.38;;;;;;;3.29;100.00;101480.94;5028691;28;20127;-76
2022/12/19 04:22:35;;;;;;;35.92;13.85;;;;;;;3.40;100.00;101472.53;5027783;28;20037;-76
2022/12/19 04:25:03;;;;;;;32.00;12.90;;;;;;;3.45;100.00;101481.34;5033082;28;20040;-77
2022/12/19 04:27:31;;;;;;;37.15;13.32;;;;;;;3.46;100.00;101476.84;5047965;28;20052;-75
2022/12/19 04:29:59;;;;;;;30.70;13.02;;;;;;;3.48;100.00;101464.22;5028650;28;20458;-77
2022/12/19 04:32:26;;;;;;;36.33;13.18;;;;;;;3.57;100.00;101471.97;5027483;28;20053;-76
2022/12/19 04:34:51;;;;;;;28.92;12.40;;;;;;;3.58;100.00;101462.97;5044525;28;20032;-77
2022/12/19 04:37:17;;;;;;;33.03;12.63;;;;;;;3.65;100.00;101469.03;5045988;28;20033;-77
2022/12/19 04:39:43;;;;;;;30.83;13.30;;;;;;;3.70;100.00;101465.25;5067976;28;20039;-77
2022/12/19 04:42:08;;;;;;;32.70;13.93;;;;;;;3.72;100.00;101468.75;5031441;28;20072;-78
2022/12/19 04:44:33;;;;;;;28.17;12.40;;;;;;;3.73;100.00;101454.41;5027698;28;20414;-78
2022/12/19 04:46:59;;;;;;;27.25;13.23;;;;;;;3.87;100.00;101463.78;5025529;28;20119;-77
2022/12/19 04:49:24;;;;;;;27.35;13.00;;;;;;;3.89;100.00;101464.63;5026702;28;20496;-78
2022/12/19 04:51:49;;;;;;;25.92;10.60;;;;;;;3.94;100.00;101463.53;5036684;28;20481;-78
2022/12/19 04:54:15;;;;;;;27.80;12.82;;;;;;;4.00;100.00;101454.34;5051339;28;20032;-77
2022/12/19 04:56:41;;;;;;;24.13;11.63;;;;;;;4.01;100.00;101461.47;5051076;28;20033;-77
2022/12/19 04:59:06;;;;;;;26.48;12.88;;;;;;;4.09;100.00;101473.75;5042388;28;20029;-77
2022/12/19 05:01:31;;;;;;;29.02;12.65;;;;;;;4.13;100.00;101479.91;5028629;28;20116;-77
2022/12/19 05:03:57;;;;;;;31.63;12.68;;;;;;;4.17;100.00;101470.78;5031377;28;20112;-77
2022/12/19 05:06:22;;;;;;;26.38;11.30;;;;;;;4.22;100.00;101462.53;5031045;28;20029;-77
2022/12/19 05:08:48;;;;;;;24.45;12.15;;;;;;;4.26;100.00;101462.38;5031141;28;20502;-77
2022/12/19 05:11:15;;;;;;;31.20;13.40;;;;;;;4.28;100.00;101462.31;5036703;28;20540;-77
2022/12/19 05:13:40;;;;;;;25.45;11.07;;;;;;;4.31;100.00;101446.91;5046575;28;20365;-77
2022/12/19 05:16:08;;;;;;;24.25;12.57;;;;;;;4.37;100.00;101456.59;5042055;28;20044;-78
2022/12/19 05:18:36;;;;;;;25.35;12.07;;;;;;;4.43;100.00;101461.78;5040682;28;20061;-77
2022/12/19 05:21:03;;;;;;;27.90;11.45;;;;;;;4.44;100.00;101459.94;5045828;28;20033;-77
2022/12/19 05:23:28;;;;;;;25.42;11.30;;;;;;;4.49;100.00;101445.38;5031231;28;20144;-77
2022/12/19 05:25:57;;;;;;;25.13;13.30;;;;;;;4.53;100.00;101462.31;5030967;28;20496;-78
2022/12/19 05:28:22;;;;;;;26.00;11.88;;;;;;;4.56;100.00;101451.38;5030347;28;20051;-77
2022/12/19 05:30:48;;;;;;;23.40;11.05;;;;;;;4.56;100.00;101449.56;5061454;28;20544;-78
2022/12/19 05:33:13;;;;;;;24.13;10.57;;;;;;;4.59;100.00;101453.97;5028716;28;20044;-78
2022/12/19 05:35:38;;;;;;;22.58;10.95;;;;;;;4.61;100.00;101452.09;5030427;28;20515;-77
2022/12/19 05:38:04;;;;;;;27.38;11.75;;;;;;;4.64;100.00;101448.41;5012381;28;20061;-77
2022/12/19 05:40:30;;;;;;;26.00;12.00;;;;;;;4.69;100.00;101450.00;5037519;28;20100;-77
2022/12/19 05:42:56;;;;;;;26.88;12.52;;;;;;;4.73;100.00;101445.38;5050519;28;20489;-78
2022/12/19 05:45:21;;;;;;;29.00;13.27;;;;;;;4.79;100.00;101437.03;5031558;28;20072;-78
2022/12/19 05:47:47;;;;;;;23.80;11.32;;;;;;;4.82;100.00;101442.31;5044774;28;20103;-78
2022/12/19 05:50:16;;;;;;;24.17;11.35;;;;;;;4.83;100.00;101442.25;5029937;28;20453;-78
2022/12/19 05:52:49;;;;;;;24.10;11.55;;;;;;;4.87;100.00;101453.78;5030276;28;20060;-77
2022/12/19 05:55:14;;;;;;;20.40;10.68;;;;;;;4.94;100.00;101440.94;5029670;28;20594;-77
2022/12/19 05:57:40;;;;;;;22.10;10.57;;;;;;;4.96;100.00;101442.66;5011800;28;20480;-77
2022/12/19 06:00:09;;;;;;;22.25;10.45;;;;;;;4.98;100.00;101461.44;5038258;28;20056;-78
2022/12/19 06:02:37;;;;;;;20.10;11.65;;;;;;;4.99;100.00;101439.84;5028654;28;20037;-76
2022/12/19 06:05:03;;;;;;;25.02;10.00;;;;;;;5.03;100.00;101449.53;5036706;28;20179;-77
2022/12/19 06:07:29;;;;;;;15.00;8.45;;;;;;;5.07;100.00;101447.59;5049953;28;20068;-75
2022/12/19 06:09:54;;;;;;;18.60;10.43;;;;;;;5.08;100.00;101436.78;5048460;28;20043;-77
2022/12/19 06:12:20;;;;;;;27.73;10.30;;;;;;;5.15;100.00;101441.91;5040862;28;20021;-77
2022/12/19 06:14:45;;;;;;;18.80;10.85;;;;;;;5.18;100.00;101445.38;5028905;28;20043;-77
2022/12/19 06:17:10;;;;;;;19.45;9.85;;;;;;;5.18;100.00;101448.06;5028115;28;20068;-76
2022/12/19 06:19:36;;;;;;;20.95;10.85;;;;;;;5.21;100.00;101438.97;5028518;28;20504;-77
2022/12/19 06:22:01;;;;;;;18.48;9.80;;;;;;;5.22;100.00;101438.91;5028155;28;20404;-77
2022/12/19 06:24:27;;;;;;;22.67;10.63;;;;;;;5.26;100.00;101440.53;5028648;28;20426;-77
2022/12/19 06:26:52;;;;;;;16.95;10.27;;;;;;;5.30;100.00;101439.47;5027652;28;20041;-78
2022/12/19 06:29:17;;;;;;;18.13;10.02;;;;;;;5.35;100.00;101440.16;5029439;28;20444;-77
2022/12/19 06:31:43;;;;;;;18.45;10.43;;;;;;;5.38;100.00;101456.22;5027678;28;20037;-76
2022/12/19 06:34:09;;;;;;;20.83;10.25;;;;;;;5.42;100.00;101467.78;5029027;28;20382;-76
2022/12/19 06:36:35;;;;;;;22.00;10.70;;;;;;;5.45;100.00;101455.97;5029154;28;20490;-78
2022/12/19 06:39:01;;;;;;;16.92;9.82;;;;;;;5.44;100.00;101459.59;5034197;28;20082;-77
2022/12/19 06:44:12;;;;;;;20.42;10.60;;;;;;;5.48;100.00;101472.03;5041458;28;20037;-78
2022/12/19 06:46:38;;;;;;;19.10;9.13;;;;;;;5.47;100.00;101448.69;5026216;28;20041;-77
2022/12/19 06:49:04;;;;;;;15.95;8.80;;;;;;;5.53;100.00;101461.91;5027306;28;20512;-76
2022/12/19 06:51:29;;;;;;;17.65;8.88;;;;;;;5.53;100.00;101449.31;5027500;28;20037;-77
2022/12/19 06:53:55;;;;;;;19.90;10.10;;;;;;;5.54;100.00;101455.56;5029563;28;20125;-77
2022/12/19 06:56:20;;;;;;;19.60;9.73;;;;;;;5.55;100.00;101463.63;5028361;28;20025;-78
2022/12/19 06:58:47;;;;;;;19.58;10.30;;;;;;;5.59;100.00;101461.66;5028477;28;20034;-77
2022/12/19 07:01:38;;;;;;;18.40;9.95;;;;;;;5.59;100.00;101454.44;5027504;28;20094;-78
2022/12/19 07:04:05;;;;;;;16.02;9.70;;;;;;;5.58;100.00;101449.09;5028189;28;20489;-78
2022/12/19 07:06:30;;;;;;;14.30;8.40;;;;;;;5.59;100.00;101461.66;5027981;28;20072;-77
2022/12/19 07:08:56;;;;;;;18.42;9.35;;;;;;;5.62;100.00;101465.13;5029306;28;20086;-78
2022/12/19 07:11:21;;;;;;;19.90;10.20;;;;;;;5.62;100.00;101459.72;5027853;28;20037;-79
2022/12/19 07:13:47;;;;;;;19.80;9.95;;;;;;;5.68;100.00;101458.56;5027264;28;20457;-78
2022/12/19 07:16:12;;;;;;;15.13;9.25;;;;;;;5.69;100.00;101465.75;5026073;28;20053;-77
2022/12/19 07:18:39;;;;;;;17.80;9.07;;;;;;;5.70;100.00;101461.22;5033820;28;20029;-77
2022/12/19 07:21:06;;;;;;;17.92;8.88;;;;;;;5.72;100.00;101464.72;5030461;28;20031;-77
2022/12/19 07:23:33;;;;;;;14.82;8.25;;;;;;;5.76;100.00;101463.66;5025062;28;20098;-77
2022/12/19 07:25:59;;;;;;;18.65;9.40;;;;;;;5.75;100.00;101461.91;5036161;28;20040;-75
2022/12/19 07:28:25;;;;;;;17.50;9.95;;;;;;;5.76;100.00;101452.84;5044668;28;20048;-77
2022/12/19 07:30:51;;;;;;;15.05;10.27;;;;;;;5.75;100.00;101453.81;5032694;28;20055;-78
2022/12/19 07:33:16;;;;;;;16.35;9.10;;;;;;;5.79;100.00;101455.44;5043071;28;20036;-77
2022/12/19 07:35:41;;;;;;;16.60;9.13;;;;;;;5.76;100.00;101455.56;5045459;28;20072;-78
2022/12/19 07:38:07;;;;;;;13.32;8.38;;;;;;;5.79;100.00;101461.72;5043270;28;20029;-78
2022/12/19 07:40:34;;;;;;;14.40;8.73;;;;;;;5.77;100.00;101458.19;5045831;28;20047;-79
2022/12/19 07:43:01;;;;;;;15.80;8.48;;;;;;;5.83;100.00;101470.56;5034152;28;20200;-76
2022/12/19 07:45:27;;;;;;;16.38;8.32;;;;;;;5.84;100.00;101464.22;5039915;28;20025;-77
2022/12/19 07:47:52;;;;;;;15.80;8.52;;;;;;;5.87;100.00;101475.78;5038253;28;20047;-78
2022/12/19 07:50:18;;;;;;;17.35;8.82;;;;;;;5.87;100.00;101469.47;5033237;28;20828;-77
2022/12/19 07:52:43;;;;;;;16.25;9.10;;;;;;;5.87;100.00;101469.47;5078913;28;20044;-76
2022/12/19 07:55:09;;;;;;;11.93;7.32;;;;;;;5.86;100.00;101476.69;5027711;28;20054;-78
2022/12/19 07:57:34;;;;;;;15.20;8.38;;;;;;;5.91;100.00;101476.50;5027489;28;20083;-78
2022/12/19 07:59:59;;;;;;;12.60;7.32;;;;;;;5.94;100.00;101480.94;5026435;28;20095;-77
2022/12/19 08:02:25;;;;;;;14.02;8.82;;;;;;;5.96;100.00;101488.00;5027244;28;20117;-77
2022/12/19 08:04:50;;;;;;;15.77;8.45;;;;;;;5.98;100.00;101494.25;5027416;28;20477;-78
2022/12/19 08:07:16;;;;;;;14.70;8.43;;;;;;;5.98;100.00;101486.13;5026309;28;20056;-76
2022/12/19 08:09:41;;;;;;;12.60;8.27;;;;;;;5.95;100.00;101488.09;5027232;28;20059;-78
2022/12/19 08:12:06;;;;;;;15.98;8.60;;;;;;;5.99;100.00;101487.00;5031904;28;20404;-78
2022/12/19 08:14:32;;;;;;;17.13;8.15;;;;;;;6.00;100.00;101496.88;5034598;28;20519;-77
2022/12/19 08:16:57;;;;;;;13.63;7.80;;;;;;;5.98;100.00;101490.66;5043308;28;20110;-78
2022/12/19 08:19:22;;;;;;;13.43;7.35;;;;;;;6.01;100.00;101485.97;5035294;28;20045;-78
2022/12/19 08:21:48;;;;;;;13.82;7.60;;;;;;;6.04;100.00;101490.38;5027236;28;20485;-79
2022/12/19 08:24:13;;;;;;;14.18;8.45;;;;;;;6.05;100.00;101490.31;5009739;28;20087;-78
2022/12/19 08:26:39;;;;;;;12.95;8.02;;;;;;;6.06;100.00;101478.59;5025851;28;20499;-77
2022/12/19 08:29:05;;;;;;;15.73;7.47;;;;;;;6.10;100.00;101482.00;5029718;28;20036;-79
2022/12/19 08:31:30;;;;;;;11.35;7.28;;;;;;;6.09;100.00;101485.66;5031769;28;20056;-77
2022/12/19 08:33:56;;;;;;;15.57;7.32;;;;;;;6.16;100.00;101489.00;5029450;28;20044;-76
2022/12/19 08:36:22;;;;;;;13.70;7.45;;;;;;;6.20;100.00;101501.38;5026192;28;20492;-78
2022/12/19 08:38:48;;;;;;;15.27;7.40;;;;;;;6.22;100.00;101486.88;5025667;28;20052;-77
2022/12/19 08:41:14;;;;;;;11.95;7.43;;;;;;;6.23;100.00;101496.75;5032964;28;20028;-76
2022/12/19 08:43:40;;;;;;;13.32;7.55;;;;;;;6.27;100.00;101505.59;5042367;28;20698;-76
2022/12/19 08:46:08;;;;;;;11.68;7.35;;;;;;;6.32;100.00;101509.84;5035873;28;20113;-77
2022/12/19 08:48:34;;;;;;;11.32;7.05;;;;;;;6.36;100.00;101507.88;5043679;28;20029;-76
2022/12/19 08:51:03;;;;;;;12.45;7.03;;;;;;;6.39;100.00;101502.38;5033825;28;20044;-77
2022/12/19 08:53:31;;;;;;;14.13;7.25;;;;;;;6.39;100.00;101492.44;5027258;28;20491;-76
2022/12/19 08:56:03;;;;;;;12.25;7.10;;;;;;;6.42;100.00;101493.22;5039873;28;20364;-76
2022/12/19 08:58:29;;;;;;;13.35;6.50;;;;;;;6.44;100.00;101485.94;5039965;28;20054;-77
2022/12/19 09:01:03;;;;;;;12.65;7.03;;;;;;;6.45;100.00;101493.97;5027938;28;20396;-77
2022/12/19 09:03:30;;;;;;;11.48;6.57;;;;;;;6.47;100.00;101497.47;5035119;28;20033;-78
2022/12/19 09:05:56;;;;;;;12.35;7.38;;;;;;;6.52;100.00;101500.84;5045992;28;20056;-78
2022/12/19 09:08:22;;;;;;;16.17;8.10;;;;;;;6.52;100.00;101508.94;5032023;28;20026;-78
2022/12/19 09:10:47;;;;;;;15.30;7.28;;;;;;;6.57;100.00;101506.03;5028941;28;20059;-78
2022/12/19 09:13:13;;;;;;;10.13;6.32;;;;;;;6.60;100.00;101508.63;5046478;28;20041;-78
2022/12/19 09:15:38;;;;;;;11.80;6.78;;;;;;;6.60;100.00;101517.59;5033571;28;20452;-77
2022/12/19 09:18:04;;;;;;;10.05;6.18;;;;;;;6.62;100.00;101512.13;5042208;28;20040;-77
2022/12/19 09:20:29;;;;;;;10.73;6.75;;;;;;;6.64;100.00;101503.00;5026831;28;20099;-78
2022/12/19 09:22:54;;;;;;;8.60;5.82;;;;;;;6.67;100.00;101520.91;5026280;28;20034;-78
2022/12/19 09:25:20;;;;;;;11.20;6.70;;;;;;;6.69;100.00;101508.19;5038833;28;20028;-79
2022/12/19 09:27:45;;;;;;;8.88;6.72;;;;;;;6.71;100.00;101510.81;5046542;28;20048;-77
2022/12/19 09:30:11;;;;;;;13.73;7.07;;;;;;;6.72;100.00;101508.06;5029264;28;20587;-78
2022/12/19 09:32:37;;;;;;;14.18;6.35;;;;;;;6.75;100.00;101513.31;5026007;28;20550;-78
2022/12/19 09:35:03;;;;;;;11.30;6.35;;;;;;;6.78;100.00;101518.59;5041253;28;20045;-77
2022/12/19 09:37:29;;;;;;;11.20;6.13;;;;;;;6.78;100.00;101515.00;5028363;28;20392;-77
2022/12/19 09:39:54;;;;;;;9.65;5.80;;;;;;;6.79;100.00;101511.34;5038760;28;20041;-77
2022/12/19 09:42:45;;;;;;;8.23;5.43;;;;;;;6.84;100.00;101512.00;5043522;28;20104;-78
2022/12/19 09:45:29;;;;;;;11.95;6.68;;;;;;;6.90;100.00;101515.34;5033574;28;20029;-78
2022/12/19 09:47:57;;;;;;;11.68;6.47;;;;;;;6.93;100.00;101508.88;5028585;28;20058;-79
2022/12/19 09:50:46;;;;;;;12.82;6.45;;;;;;;7.01;100.00;101500.44;5030061;28;20025;-75
2022/12/19 09:53:21;;;;;;;8.30;6.65;;;;;;;7.03;100.00;101510.19;5062231;28;20037;-78
2022/12/19 09:55:51;;;;;;;11.10;6.05;;;;;;;7.07;100.00;101509.13;5028801;28;20033;-77
2022/12/19 09:58:29;;;;;;;9.35;5.65;;;;;;;7.16;100.00;101513.22;5028805;28;20033;-77
2022/12/19 10:00:56;;;;;;;13.02;6.50;;;;;;;7.21;100.00;101513.88;5029147;28;20029;-78
2022/12/19 10:03:28;;;;;;;10.65;6.22;;;;;;;7.27;100.00;101524.41;5027699;28;20562;-78
2022/12/19 10:06:01;;;;;;;12.20;7.22;;;;;;;7.31;100.00;101527.84;5030311;28;20041;-78
2022/12/19 10:08:32;;;;;;;;;;;;;;;7.35;100.00;101527.63;5031138;28;20079;-77
2022/12/19 10:11:29;;;;;;;14.85;6.45;;;;;;;7.37;100.00;101520.31;5034012;28;19990;-78
2022/12/19 10:14:24;;;;;;;7.85;5.70;;;;;;;7.40;100.00;101514.75;5041580;28;20115;-78
2022/12/19 10:16:50;;;;;;;11.15;5.97;;;;;;;7.43;100.00;101507.44;5019987;28;20061;-79
2022/12/19 10:19:23;;;;;;;8.25;5.60;;;;;;;7.44;100.00;101510.06;5029496;28;20045;-77
2022/12/19 10:22:05;;;;;;;8.48;6.35;;;;;;;7.49;100.00;101517.94;5029523;28;20195;-78
2022/12/19 10:24:30;;;;;;;9.77;5.65;;;;;;;7.51;100.00;101514.25;5045097;28;20041;-78
2022/12/19 10:27:00;;;;;;;11.35;5.82;;;;;;;7.51;100.00;101510.66;5029567;28;20025;-78
2022/12/19 10:29:44;;;;;;;8.20;5.32;;;;;;;7.49;100.00;101512.53;5037288;28;20111;-78
2022/12/19 10:32:28;;;;;;;10.77;4.85;;;;;;;7.51;100.00;101521.47;5028083;28;20492;-78
2022/12/19 10:34:53;;;;;;;8.45;4.93;;;;;;;7.48;100.00;101524.34;5028028;28;20459;-78
2022/12/19 10:37:21;;;;;;;9.75;5.15;;;;;;;7.48;100.00;101527.91;5029282;28;20061;-78
2022/12/19 10:39:58;;;;;;;11.75;5.40;;;;;;;7.47;100.00;101531.56;5028818;28;20124;-78
2022/12/19 10:42:36;;;;;;;10.80;5.65;;;;;;;7.47;100.00;101523.47;5044440;28;20406;-79
2022/12/19 10:45:11;;;;;;;7.10;5.00;;;;;;;7.48;100.00;101532.44;5035765;28;20888;-78
2022/12/19 10:47:36;;;;;;;8.02;5.40;;;;;;;7.47;100.00;101531.56;5028440;28;20114;-78
2022/12/19 10:50:02;;;;;;;10.27;5.03;;;;;;;7.45;100.00;101519.94;5036424;28;20038;-78
2022/12/19 10:52:46;;;;;;;8.90;4.93;;;;;;;7.50;100.00;101514.28;5029388;28;20132;-77
2022/12/19 10:55:37;;;;;;;9.65;5.97;;;;;;;7.48;100.00;101521.63;5037082;28;20447;-78
2022/12/19 10:58:17;;;;;;;8.77;5.25;;;;;;;7.45;100.00;101519.94;5070211;28;20030;-77
2022/12/19 11:01:03;;;;;;;7.72;4.82;;;;;;;7.47;100.00;101517.16;5028018;28;20380;-79
2022/12/19 11:03:31;;;;;;;8.82;5.28;;;;;;;7.45;100.00;101516.34;5027804;28;20080;-79
2022/12/19 11:05:57;;;;;;;8.45;5.55;;;;;;;7.46;100.00;101518.09;5029247;28;20053;-78
2022/12/19 11:08:34;;;;;;;5.80;4.78;;;;;;;7.47;100.00;101509.03;5040730;28;20425;-77
2022/12/19 11:11:02;;;;;;;6.55;4.72;;;;;;;7.45;100.00;101506.38;5042548;28;20029;-79
2022/12/19 11:13:34;;;;;;;7.50;5.05;;;;;;;7.46;100.00;101513.59;5038307;28;20493;-78
2022/12/19 11:16:02;;;;;;;9.15;5.35;;;;;;;7.44;100.00;101506.47;5025735;28;20057;-78
2022/12/19 11:18:39;;;;;;;8.02;5.38;;;;;;;7.46;100.00;101504.56;5039695;28;20044;-77
2022/12/19 11:21:28;;;;;;;7.35;4.70;;;;;;;7.47;100.00;101487.38;5026985;28;20037;-78
2022/12/19 11:24:03;;;;;;;8.48;5.47;;;;;;;7.48;100.00;101489.13;5028681;28;20045;-78
2022/12/19 11:26:40;;;;;;;9.85;4.90;;;;;;;7.50;100.00;101485.38;5029440;28;20037;-76
2022/12/19 11:29:39;;;;;;;7.20;5.18;;;;;;;7.51;100.00;101497.13;5043419;28;20389;-77
2022/12/19 11:32:20;;;;;;;8.40;5.20;;;;;;;7.53;100.00;101490.66;5028473;28;20037;-77